< Typhoon 198720 1987 Season Typhoon 198722 >
Typhoon 198721 (MAURY)
General InformationTrack Information on Google MapsDetailed Wind InformationList of All Images || Disaster Info.ResourceGoogle EarthGE AnimationAtom FeedGeoJSON
Detalied Best Track (Time Zone = UTC)
Year Month Day Hour Lat. Long. Pressure (hPa) Wind (kt) Class Image Chart
1987 11 13 00 13.5 128.0 1004 0 2 Image Chart
1987 11 13 06 13.5 127.5 1002 0 2 Image Chart
1987 11 13 12 13.0 127.0 1004 0 2 Image Chart
1987 11 13 18 12.5 126.5 1004 0 2 Image Chart
1987 11 14 00 12.5 126.0 1006 0 2 Image Chart
1987 11 14 06 12.5 125.0 1006 0 2 Image Chart
1987 11 14 12 12.5 124.5 1006 0 2 Image Chart
1987 11 14 18 12.5 123.5 1006 0 2 Image Chart
1987 11 15 00 12.5 122.5 1008 0 2 Image Chart
1987 11 15 06 12.5 121.5 1006 0 2 Image Chart
1987 11 15 12 12.5 120.5 1006 0 2 Image Chart
1987 11 15 18 12.5 119.5 1006 0 2 Image Chart
1987 11 16 00 12.5 118.0 1006 0 2 Image Chart
1987 11 16 06 13.0 117.0 1004 0 2 Image Chart
1987 11 16 12 13.5 116.0 1004 0 2 Image Chart
1987 11 16 18 13.8 115.0 1002 35 3 Image Chart
1987 11 17 00 13.8 114.0 1000 45 3 Image Chart
1987 11 17 06 13.7 113.2 998 45 3 Image Chart
1987 11 17 12 13.5 112.5 996 45 3 Image Chart
1987 11 17 18 13.2 111.8 994 40 3 Image Chart
1987 11 18 00 12.8 111.4 994 40 3 Image Chart
1987 11 18 06 13.0 111.2 996 40 3 Image Chart
1987 11 18 12 13.2 110.5 998 40 3 Image Chart
1987 11 18 18 13.2 109.8 1000 40 3 Image Chart
1987 11 19 00 13.0 109.0 1004 0 2 Image Chart
1987 11 19 06 12.5 108.5 1006 0 2 Image Chart
Japan Meteorological Agency Best Track Data | Correction Date : 1992-10-21
< Typhoon 198720 1987 Season Typhoon 198722 >

Help